Time;durP1;ratioP1;P1;durP2;ratioP2;P2;SDS_P1;SDS_P2;PMS_P1;PMS_P2;Temp;Humidity;BMP_temperature;BMP_pressure;BME280_temperature;BME280_humidity;BME280_pressure;Samples;Min_cycle;Max_cycle;Signal;HPM_P1;HPM_P2
2023/03/17 00:05:03;;;;;;;11.70;5.78;;;;;;;4.20;100.00;100004.31;20771143;28;20169;-84
2023/03/17 00:15:06;;;;;;;10.32;5.40;;;;;;;4.10;100.00;99990.44;20769401;28;20138;-84
2023/03/17 00:25:08;;;;;;;10.83;5.73;;;;;;;4.15;100.00;100000.81;20763513;28;20046;-85
2023/03/17 00:35:10;;;;;;;8.85;4.95;;;;;;;4.13;100.00;99993.06;20765692;28;20092;-84
2023/03/17 00:45:11;;;;;;;11.15;5.43;;;;;;;4.13;100.00;99994.78;20769808;28;20076;-85
2023/03/17 00:55:13;;;;;;;9.25;5.03;;;;;;;4.29;100.00;99984.47;20771291;28;20113;-84
2023/03/17 01:05:15;;;;;;;10.50;5.38;;;;;;;4.29;100.00;99976.69;20790568;28;20057;-85
2023/03/17 01:15:16;;;;;;;11.25;5.45;;;;;;;4.32;100.00;99961.16;20775141;28;20399;-84
2023/03/17 01:25:17;;;;;;;9.43;5.88;;;;;;;4.27;100.00;99947.31;20775868;28;20085;-84
2023/03/17 01:35:19;;;;;;;11.13;6.18;;;;;;;4.28;100.00;99930.91;20773924;28;20061;-84
2023/03/17 01:45:20;;;;;;;11.98;6.10;;;;;;;4.25;100.00;99920.53;20766051;28;20442;-84
2023/03/17 01:55:21;;;;;;;11.68;5.50;;;;;;;4.07;100.00;99930.84;20755419;28;20046;-84
2023/03/17 02:05:23;;;;;;;11.98;5.60;;;;;;;3.95;100.00;99920.47;20752784;28;20125;-84
2023/03/17 02:15:24;;;;;;;12.43;6.22;;;;;;;3.92;100.00;99916.13;20757206;28;20113;-85
2023/03/17 02:25:25;;;;;;;9.55;5.35;;;;;;;3.81;100.00;99910.91;20758448;28;20053;-84
2023/03/17 02:35:27;;;;;;;13.77;5.78;;;;;;;3.72;100.00;99913.47;20757518;28;20054;-84
2023/03/17 02:45:28;;;;;;;11.73;5.57;;;;;;;3.56;100.00;99902.19;20761601;28;20050;-84
2023/03/17 02:55:30;;;;;;;13.07;6.40;;;;;;;3.42;100.00;99900.38;20767128;28;20069;-84
2023/03/17 03:05:32;;;;;;;12.23;7.13;;;;;;;3.23;100.00;99889.94;20711792;28;20069;-84
2023/03/17 03:15:34;;;;;;;14.18;6.88;;;;;;;3.02;100.00;99897.56;20710620;28;20217;-84
2023/03/17 03:25:36;;;;;;;12.07;6.82;;;;;;;2.93;100.00;99888.03;20776337;28;20069;-86
2023/03/17 03:35:38;;;;;;;12.85;7.80;;;;;;;2.72;100.00;99883.53;20781352;28;20056;-84
2023/03/17 03:45:40;;;;;;;15.82;8.68;;;;;;;2.59;100.00;99889.50;20781122;28;20057;-85
2023/03/17 03:55:41;;;;;;;13.88;8.32;;;;;;;2.43;100.00;99890.19;20767220;28;20060;-84
2023/03/17 04:05:42;;;;;;;15.45;7.90;;;;;;;2.35;100.00;99897.00;20781825;28;20053;-83
2023/03/17 04:15:44;;;;;;;14.57;7.78;;;;;;;2.21;100.00;99900.34;20779411;28;20057;-84
2023/03/17 04:25:45;;;;;;;17.48;8.57;;;;;;;2.15;100.00;99889.06;20773054;28;20127;-85
2023/03/17 04:35:47;;;;;;;13.88;7.70;;;;;;;2.02;100.00;99873.47;20765307;28;20062;-84
2023/03/17 04:45:48;;;;;;;14.05;8.40;;;;;;;1.88;100.00;99877.63;20771015;28;20062;-84
2023/03/17 04:55:50;;;;;;;15.95;8.30;;;;;;;1.86;100.00;99904.25;20769330;28;20042;-84
2023/03/17 05:05:51;;;;;;;14.80;8.23;;;;;;;1.73;100.00;99909.28;20779706;28;20124;-84
2023/03/17 05:15:52;;;;;;;16.27;8.13;;;;;;;1.63;100.00;99906.53;20761503;28;20054;-84
2023/03/17 05:25:54;;;;;;;15.02;8.57;;;;;;;1.60;100.00;99909.13;20784866;28;20042;-83
2023/03/17 05:35:56;;;;;;;15.10;8.23;;;;;;;1.60;100.00;99927.16;20808322;28;20547;-84
2023/03/17 05:45:57;;;;;;;14.18;8.60;;;;;;;1.51;100.00;99928.78;20764323;28;20092;-84
2023/03/17 05:55:58;;;;;;;17.83;8.77;;;;;;;1.60;100.00;99930.63;20761375;28;20046;-84
2023/03/17 06:06:00;;;;;;;18.00;8.75;;;;;;;1.67;100.00;99922.09;20765751;28;20422;-84
2023/03/17 06:16:02;;;;;;;16.95;9.65;;;;;;;1.80;100.00;99918.81;20761944;28;20041;-85
2023/03/17 06:26:03;;;;;;;13.20;8.52;;;;;;;1.93;100.00;99924.13;20751411;28;20430;-84
2023/03/17 06:36:05;;;;;;;18.65;8.75;;;;;;;2.26;100.00;99934.84;20745916;28;20050;-84
2023/03/17 06:46:07;;;;;;;16.55;9.98;;;;;;;2.65;100.00;99946.41;20743278;28;20053;-84
2023/03/17 06:56:08;;;;;;;24.05;12.45;;;;;;;3.11;100.00;99949.34;20764647;28;20080;-85
2023/03/17 07:06:29;;;;;;;26.50;14.50;;;;;;;3.55;100.00;99941.00;20750895;28;20064;-85
2023/03/17 07:16:31;;;;;;;25.67;14.60;;;;;;;3.73;100.00;99929.84;20740717;28;20048;-86
2023/03/17 07:26:33;;;;;;;22.48;14.15;;;;;;;3.88;100.00;99934.22;20735942;28;20077;-84
2023/03/17 07:36:34;;;;;;;26.60;15.07;;;;;;;4.06;100.00;99942.06;20762308;28;20053;-85
2023/03/17 07:46:37;;;;;;;24.45;13.73;;;;;;;4.28;100.00;99950.78;20784698;28;20111;-85
2023/03/17 07:56:38;;;;;;;17.30;9.88;;;;;;;4.67;100.00;99944.78;20732403;28;20654;-84
2023/03/17 08:06:42;;;;;;;18.33;9.20;;;;;;;5.05;100.00;99938.75;20742525;28;20056;-84
2023/03/17 08:16:43;;;;;;;16.40;9.33;;;;;;;5.37;100.00;99949.97;20762508;28;20416;-86
2023/03/17 08:26:47;;;;;;;12.93;7.18;;;;;;;5.52;100.00;99938.66;20764096;28;20096;-86
2023/03/17 08:36:51;;;;;;;18.60;9.00;;;;;;;6.01;100.00;99935.06;20737157;28;20046;-86
2023/03/17 08:46:55;;;;;;;18.92;9.38;;;;;;;6.97;100.00;99923.13;20767028;28;20050;-84
2023/03/17 08:56:57;;;;;;;14.00;8.65;;;;;;;7.64;100.00;99912.03;20766784;28;20046;-86
2023/03/17 09:06:58;;;;;;;14.38;7.57;;;;;;;8.56;100.00;99888.19;20763254;28;20104;-85
2023/03/17 09:17:06;;;;;;;14.27;7.20;;;;;;;9.11;100.00;99883.81;20754090;28;20056;-84
2023/03/17 09:27:08;;;;;;;10.38;6.30;;;;;;;9.76;100.00;99879.91;20743868;28;20050;-85
2023/03/17 09:37:12;;;;;;;12.70;6.63;;;;;;;10.36;100.00;99878.66;20745189;28;20050;-86
2023/03/17 09:47:13;;;;;;;10.95;5.63;;;;;;;10.96;100.00;99864.94;20771449;28;20061;-87
2023/03/17 09:57:18;;;;;;;8.70;5.05;;;;;;;11.54;98.99;99859.88;20757082;28;20100;-85
2023/03/17 10:07:19;;;;;;;11.57;4.43;;;;;;;11.82;87.37;99849.47;20753277;28;20046;-85
2023/03/17 10:17:20;;;;;;;10.45;4.68;;;;;;;12.29;80.74;99841.94;20743337;28;20359;-87
2023/03/17 10:27:22;;;;;;;10.18;5.25;;;;;;;12.57;75.73;99824.38;20729160;28;20054;-85
2023/03/17 10:37:23;;;;;;;9.07;4.30;;;;;;;12.69;75.35;99812.59;20740692;28;20053;-85
2023/03/17 10:47:25;;;;;;;7.80;4.25;;;;;;;12.97;76.46;99812.50;20746015;28;20073;-85
2023/03/17 10:57:26;;;;;;;9.98;4.45;;;;;;;13.34;71.93;99817.34;20743283;28;20042;-83
2023/03/17 11:07:30;;;;;;;11.30;4.70;;;;;;;13.62;70.38;99807.59;20751333;28;20077;-84
2023/03/17 11:17:32;;;;;;;9.20;4.22;;;;;;;13.94;69.48;99798.44;20769549;28;20395;-87
2023/03/17 11:27:34;;;;;;;8.68;4.65;;;;;;;14.07;64.75;99787.38;20739721;28;20049;-86
2023/03/17 11:37:35;;;;;;;8.07;4.32;;;;;;;14.16;62.44;99774.78;20753985;28;20049;-84
2023/03/17 11:47:36;;;;;;;8.40;3.97;;;;;;;14.28;59.89;99763.75;20750355;28;20056;-84
2023/03/17 11:57:37;;;;;;;7.50;4.05;;;;;;;14.39;60.97;99756.25;20743540;28;20462;-85
2023/03/17 12:07:39;;;;;;;10.32;4.13;;;;;;;14.68;60.28;99756.84;20737725;28;20494;-84
2023/03/17 12:17:40;;;;;;;8.68;4.18;;;;;;;14.84;60.94;99742.06;20744633;28;20100;-85
2023/03/17 12:27:41;;;;;;;7.88;3.92;;;;;;;15.17;59.16;99739.72;20744339;28;20054;-84
2023/03/17 12:37:43;;;;;;;9.60;4.53;;;;;;;15.38;58.15;99722.06;20749390;28;20060;-84
2023/03/17 12:47:52;;;;;;;7.38;4.15;;;;;;;15.32;58.20;99717.06;20759070;28;20076;-84
2023/03/17 12:57:56;;;;;;;8.23;3.40;;;;;;;15.46;58.04;99688.25;20758277;28;20656;-85
2023/03/17 13:07:57;;;;;;;8.60;4.05;;;;;;;15.53;59.19;99692.31;20757014;28;20057;-84
2023/03/17 13:18:02;;;;;;;8.30;3.78;;;;;;;15.73;53.12;99674.72;20769899;28;20062;-84
2023/03/17 13:28:04;;;;;;;9.23;3.92;;;;;;;15.71;55.10;99658.94;20791224;28;20692;-83
2023/03/17 13:38:05;;;;;;;10.45;4.68;;;;;;;15.55;54.91;99650.88;20762451;28;20088;-84
2023/03/17 13:48:07;;;;;;;12.68;3.88;;;;;;;15.44;59.68;99653.19;20761057;28;20050;-85
2023/03/17 13:58:08;;;;;;;8.25;3.42;;;;;;;15.29;58.92;99652.13;20747241;28;20046;-84
2023/03/17 14:08:14;;;;;;;6.40;2.93;;;;;;;15.33;58.88;99643.16;20757864;28;20046;-84
2023/03/17 14:18:15;;;;;;;7.10;3.10;;;;;;;15.30;58.32;99650.34;20757513;28;20092;-84
2023/03/17 14:28:16;;;;;;;8.50;3.10;;;;;;;15.21;60.10;99634.94;20739777;28;20137;-85
2023/03/17 14:38:18;;;;;;;6.85;3.03;;;;;;;15.28;56.72;99623.16;20754680;28;20419;-84
2023/03/17 14:48:20;;;;;;;5.82;3.00;;;;;;;15.19;62.91;99618.31;20750140;28;20124;-84
2023/03/17 14:58:21;;;;;;;7.57;2.90;;;;;;;15.10;62.81;99615.22;20751764;28;20050;-83
2023/03/17 15:08:23;;;;;;;5.75;2.78;;;;;;;15.10;63.22;99588.00;20750042;28;20054;-83
2023/03/17 15:18:24;;;;;;;7.75;3.53;;;;;;;14.99;65.15;99600.81;20744619;28;20042;-84
2023/03/17 15:28:25;;;;;;;7.30;3.58;;;;;;;14.92;62.84;99608.16;20755908;28;20054;-84
2023/03/17 15:38:27;;;;;;;18.13;8.43;;;;;;;14.80;65.21;99608.72;20821606;23;20648;-68
2023/03/17 15:48:31;;;;;;;7.35;3.53;;;;;;;14.74;63.68;99604.56;20796320;28;20446;-67
2023/03/17 15:58:33;;;;;;;8.63;3.38;;;;;;;14.71;62.94;99593.31;20794937;28;20597;-70
2023/03/17 16:08:36;;;;;;;6.93;2.78;;;;;;;14.43;66.71;99601.59;20795255;28;20049;-70
2023/03/17 16:18:37;;;;;;;8.52;2.95;;;;;;;14.16;69.23;99603.63;20796732;28;20052;-69
2023/03/17 16:28:39;;;;;;;8.70;3.50;;;;;;;13.99;68.89;99589.44;20801542;28;20045;-70
2023/03/17 16:38:40;;;;;;;12.02;7.13;;;;;;;13.83;75.46;99593.63;20811066;28;20545;-69
2023/03/17 16:48:41;;;;;;;13.57;8.73;;;;;;;13.62;74.70;99603.28;20811921;28;20111;-69
2023/03/17 16:58:42;;;;;;;8.57;4.82;;;;;;;13.35;77.32;99615.75;20819187;28;20425;-69
2023/03/17 17:08:44;;;;;;;19.20;11.63;;;;;;;13.09;79.74;99630.75;20798872;28;20081;-68
2023/03/17 17:18:46;;;;;;;12.00;7.47;;;;;;;12.89;83.82;99628.00;20798820;28;20068;-69
2023/03/17 17:28:47;;;;;;;12.32;4.50;;;;;;;12.62;87.73;99642.16;20798866;28;20092;-68
2023/03/17 17:38:50;;;;;;;7.60;2.78;;;;;;;12.28;86.08;99649.47;20795753;28;20063;-68
2023/03/17 17:48:51;;;;;;;9.32;4.35;;;;;;;12.13;91.17;99659.63;20795207;28;20053;-68
2023/03/17 17:58:53;;;;;;;7.10;3.47;;;;;;;11.93;89.62;99673.38;20796639;28;20473;-70
2023/03/17 18:08:54;;;;;;;15.43;7.72;;;;;;;11.84;96.49;99678.97;20795090;28;20056;-70
2023/03/17 18:18:56;;;;;;;17.50;9.65;;;;;;;11.64;97.49;99682.16;20795028;28;20414;-70
2023/03/17 18:28:57;;;;;;;7.82;3.35;;;;;;;11.42;96.09;99689.84;20795763;28;20049;-69
2023/03/17 18:38:59;;;;;;;12.90;6.20;;;;;;;11.32;100.00;99696.28;20792369;28;20442;-70
2023/03/17 18:49:00;;;;;;;14.88;8.10;;;;;;;11.21;100.00;99694.84;20792932;28;20080;-70
2023/03/17 18:59:01;;;;;;;12.73;6.93;;;;;;;11.07;100.00;99686.53;20790778;28;20046;-69
2023/03/17 19:09:03;;;;;;;8.82;4.93;;;;;;;10.92;100.00;99698.31;20788986;28;20061;-69
2023/03/17 19:19:04;;;;;;;10.02;5.28;;;;;;;10.79;100.00;99699.53;20786976;28;20143;-69
2023/03/17 19:29:08;;;;;;;11.82;5.57;;;;;;;10.67;100.00;99707.72;20787086;28;20487;-69
2023/03/17 19:39:10;;;;;;;13.47;8.23;;;;;;;10.53;100.00;99706.31;20789582;28;20482;-68
2023/03/17 19:49:11;;;;;;;21.73;11.40;;;;;;;10.52;100.00;99709.84;20788393;28;20130;-70
2023/03/17 19:59:14;;;;;;;13.93;7.22;;;;;;;10.60;100.00;99711.44;20786429;28;20060;-69
2023/03/17 20:09:15;;;;;;;11.27;6.47;;;;;;;10.57;100.00;99709.72;20785415;28;20068;-69
2023/03/17 20:19:17;;;;;;;16.02;8.80;;;;;;;10.42;100.00;99697.06;20784567;28;20046;-69
2023/03/17 20:29:18;;;;;;;11.50;7.22;;;;;;;10.43;100.00;99704.00;20786512;28;20069;-70
2023/03/17 20:39:20;;;;;;;13.13;6.75;;;;;;;10.35;100.00;99717.31;20784547;28;20104;-69
2023/03/17 20:49:22;;;;;;;15.70;7.78;;;;;;;10.09;100.00;99722.28;20782372;28;20095;-69
2023/03/17 20:59:23;;;;;;;14.18;8.48;;;;;;;9.97;100.00;99716.47;20784350;28;20049;-72
2023/03/17 21:09:25;;;;;;;13.93;8.00;;;;;;;9.85;100.00;99715.91;20784129;28;20049;-71
2023/03/17 21:19:26;;;;;;;9.00;4.40;;;;;;;9.77;100.00;99731.75;20795666;28;20195;-71
2023/03/17 21:29:27;;;;;;;6.82;3.47;;;;;;;9.66;100.00;99736.38;20799253;28;20096;-71
2023/03/17 21:39:29;;;;;;;7.47;4.05;;;;;;;9.66;100.00;99742.47;20797870;28;20110;-71
2023/03/17 21:49:30;;;;;;;7.50;3.40;;;;;;;9.64;100.00;99770.41;20796447;28;20050;-71
2023/03/17 21:59:34;;;;;;;9.45;5.30;;;;;;;9.56;100.00;99759.25;20796742;28;20089;-71
2023/03/17 22:09:36;;;;;;;15.55;6.93;;;;;;;9.43;100.00;99763.84;20798039;28;20049;-72
2023/03/17 22:19:38;;;;;;;14.02;6.45;;;;;;;9.33;100.00;99764.94;20808672;28;20421;-72
2023/03/17 22:29:40;;;;;;;9.73;5.30;;;;;;;9.23;100.00;99779.09;20792355;28;20057;-72
2023/03/17 22:39:41;;;;;;;15.45;6.95;;;;;;;9.18;100.00;99786.16;20792545;28;20065;-72
2023/03/17 22:49:42;;;;;;;12.95;7.18;;;;;;;9.18;100.00;99794.00;20792197;28;20115;-72
2023/03/17 22:59:44;;;;;;;13.45;7.18;;;;;;;9.18;100.00;99797.47;20792624;28;20131;-72
2023/03/17 23:09:45;;;;;;;15.25;6.95;;;;;;;9.15;100.00;99801.88;20794817;28;20152;-72
2023/03/17 23:19:46;;;;;;;16.13;8.68;;;;;;;9.10;100.00;99817.66;20794172;28;20140;-71
2023/03/17 23:29:48;;;;;;;14.77;7.32;;;;;;;9.17;100.00;99834.94;20793857;28;20053;-72
2023/03/17 23:39:49;;;;;;;12.70;7.18;;;;;;;9.30;100.00;99830.34;20793486;28;20061;-71
2023/03/17 23:49:50;;;;;;;13.30;5.88;;;;;;;9.48;100.00;99832.56;20791459;28;20045;-71
2023/03/17 23:59:51;;;;;;;13.10;6.03;;;;;;;9.50;100.00;99838.63;20791239;28;20088;-71
